createdAt,value
2019-03-08T00:00:45.399Z,1020.34
2019-03-08T00:01:45.970Z,1020.41
2019-03-08T00:02:46.543Z,1020.45
2019-03-08T00:03:47.119Z,1020.47
2019-03-08T00:04:47.737Z,1020.53
2019-03-08T00:05:48.309Z,1020.46
2019-03-08T00:06:48.931Z,1020.57
2019-03-08T00:07:49.505Z,1020.57
2019-03-08T00:08:50.127Z,1020.56
2019-03-08T00:09:50.702Z,1020.61
2019-03-08T00:10:51.274Z,1020.59
2019-03-08T00:11:52.051Z,1020.64
2019-03-08T00:12:52.624Z,1020.63
2019-03-08T00:13:53.198Z,1020.68
2019-03-08T00:14:53.770Z,1020.70
2019-03-08T00:15:54.396Z,1020.73
2019-03-08T00:16:55.020Z,1020.75
2019-03-08T00:17:55.594Z,1020.73
2019-03-08T00:18:56.170Z,1020.74
2019-03-08T00:19:56.746Z,1020.72
2019-03-08T00:20:57.476Z,1020.69
2019-03-08T00:21:58.055Z,1020.69
2019-03-08T00:22:58.622Z,1020.76
2019-03-08T00:23:59.194Z,1020.77
2019-03-08T00:24:59.769Z,1020.83
2019-03-08T00:26:00.336Z,1020.76
2019-03-08T00:27:00.959Z,1020.72
2019-03-08T00:28:01.533Z,1020.72
2019-03-08T00:29:02.159Z,1020.76
2019-03-08T00:30:02.732Z,1020.83
2019-03-08T00:31:03.404Z,1020.90
2019-03-08T00:32:04.077Z,1020.83
2019-03-08T00:33:04.698Z,1020.92
2019-03-08T00:34:05.321Z,1020.98
2019-03-08T00:35:05.895Z,1020.95
2019-03-08T00:36:06.466Z,1020.91
2019-03-08T00:37:09.034Z,1020.90
2019-03-08T00:38:08.655Z,1020.95
2019-03-08T00:39:09.226Z,1021.03
2019-03-08T00:40:09.801Z,1021.09
2019-03-08T00:41:10.472Z,1021.09
2019-03-08T00:42:11.046Z,1021.10
2019-03-08T00:43:11.665Z,1021.18
2019-03-08T00:44:12.335Z,1021.12
2019-03-08T00:45:12.907Z,1021.13
2019-03-08T00:46:13.480Z,1021.22
2019-03-08T00:47:14.053Z,1021.24
2019-03-08T00:48:14.677Z,1021.29
2019-03-08T00:49:15.300Z,1021.38
2019-03-08T00:50:15.874Z,1021.52
2019-03-08T00:51:16.457Z,1021.43
2019-03-08T00:52:17.022Z,1021.54
2019-03-08T00:53:17.635Z,1021.52
2019-03-08T00:54:18.258Z,1021.60
2019-03-08T00:55:19.257Z,1021.63
2019-03-08T00:56:19.830Z,1021.62
2019-03-08T00:57:20.404Z,1021.62
2019-03-08T00:58:20.975Z,1021.64
2019-03-08T00:59:21.604Z,1021.70
2019-03-08T01:00:22.174Z,1021.72
2019-03-08T01:01:22.794Z,1021.68
2019-03-08T01:02:23.360Z,1021.72
2019-03-08T01:03:23.931Z,1021.75
2019-03-08T01:04:24.782Z,1021.82
2019-03-08T01:05:25.354Z,1021.79
2019-03-08T01:06:25.927Z,1021.87
2019-03-08T01:07:26.501Z,1021.80
2019-03-08T01:08:27.077Z,1021.77
2019-03-08T01:09:27.647Z,1021.81
2019-03-08T01:10:28.218Z,1021.85
2019-03-08T01:11:28.790Z,1021.79
2019-03-08T01:12:29.362Z,1021.84
2019-03-08T01:13:29.985Z,1021.92
2019-03-08T01:14:30.555Z,1021.82
2019-03-08T01:15:31.176Z,1021.87
2019-03-08T01:16:31.798Z,1021.96
2019-03-08T01:17:32.377Z,1021.94
2019-03-08T01:18:32.944Z,1022.04
2019-03-08T01:19:33.562Z,1021.96
2019-03-08T01:20:34.185Z,1021.97
2019-03-08T01:21:34.931Z,1021.96
2019-03-08T01:22:35.506Z,1021.88
2019-03-08T01:23:36.078Z,1021.95
2019-03-08T01:24:36.654Z,1021.94
2019-03-08T01:25:37.225Z,1021.97
2019-03-08T01:26:37.850Z,1022.04
2019-03-08T01:27:38.422Z,1022.09
2019-03-08T01:28:38.992Z,1022.11
2019-03-08T01:29:39.560Z,1022.05
2019-03-08T01:30:40.135Z,1022.11
2019-03-08T01:31:40.758Z,1022.15
2019-03-08T01:32:41.331Z,1022.15
2019-03-08T01:33:41.901Z,1022.14
2019-03-08T01:34:42.472Z,1022.08
2019-03-08T01:35:43.044Z,1022.03
2019-03-08T01:36:43.707Z,1022.05
2019-03-08T01:37:44.288Z,1022.09
2019-03-08T01:38:44.952Z,1022.05
2019-03-08T01:39:45.526Z,1022.00
2019-03-08T01:40:46.098Z,1022.05
2019-03-08T01:41:46.671Z,1022.07
2019-03-08T01:42:47.241Z,1022.09
2019-03-08T01:43:47.813Z,1022.12
2019-03-08T01:44:48.387Z,1022.13
2019-03-08T01:45:48.963Z,1022.12
2019-03-08T01:46:49.529Z,1022.09
2019-03-08T01:47:50.299Z,1022.11
2019-03-08T01:48:50.870Z,1022.19
2019-03-08T01:49:51.446Z,1022.23
2019-03-08T01:50:52.015Z,1022.24
2019-03-08T01:51:52.594Z,1022.34
2019-03-08T01:52:53.210Z,1022.42
2019-03-08T01:53:53.783Z,1022.40
2019-03-08T01:54:54.406Z,1022.39
2019-03-08T01:55:54.983Z,1022.44
2019-03-08T01:56:55.804Z,1022.36
2019-03-08T01:57:56.376Z,1022.38
2019-03-08T01:58:56.947Z,1022.46
2019-03-08T01:59:57.580Z,1022.35
2019-03-08T02:00:58.146Z,1022.37
2019-03-08T02:01:58.758Z,1022.49
2019-03-08T02:02:59.383Z,1022.38
2019-03-08T02:03:59.956Z,1022.47
2019-03-08T02:05:00.624Z,1022.41
2019-03-08T02:06:01.195Z,1022.53
2019-03-08T02:07:01.770Z,1022.46
2019-03-08T02:08:02.381Z,1022.52
2019-03-08T02:09:02.954Z,1022.50
2019-03-08T02:10:03.579Z,1022.50
2019-03-08T02:11:04.149Z,1022.51
2019-03-08T02:12:04.719Z,1022.50
2019-03-08T02:13:05.298Z,1022.36
2019-03-08T02:14:06.095Z,1022.40
2019-03-08T02:15:06.717Z,1022.40
2019-03-08T02:16:07.289Z,1022.40
2019-03-08T02:17:07.909Z,1022.48
2019-03-08T02:18:08.485Z,1022.45
2019-03-08T02:19:09.101Z,1022.54
2019-03-08T02:20:09.676Z,1022.56
2019-03-08T02:21:10.248Z,1022.54
2019-03-08T02:22:10.859Z,1022.59
2019-03-08T02:23:11.770Z,1022.55
2019-03-08T02:24:12.344Z,1022.56
2019-03-08T02:25:12.968Z,1022.51
2019-03-08T02:26:13.543Z,1022.54
2019-03-08T02:27:14.157Z,1022.56
2019-03-08T02:28:14.785Z,1022.53
2019-03-08T02:29:15.354Z,1022.53
2019-03-08T02:30:15.933Z,1022.60
2019-03-08T02:31:16.768Z,1022.53
2019-03-08T02:32:17.390Z,1022.57
2019-03-08T02:33:17.963Z,1022.53
2019-03-08T02:34:18.537Z,1022.52
2019-03-08T02:35:19.121Z,1022.51
2019-03-08T02:36:19.729Z,1022.46
2019-03-08T02:37:20.303Z,1022.46
2019-03-08T02:38:21.024Z,1022.32
2019-03-08T02:39:21.596Z,1022.36
2019-03-08T02:40:23.169Z,1022.34
2019-03-08T02:41:23.779Z,1022.36
2019-03-08T02:42:24.402Z,1022.38
2019-03-08T02:43:24.975Z,1022.41
2019-03-08T02:44:25.595Z,1022.49
2019-03-08T02:45:26.167Z,1022.43
2019-03-08T02:46:26.742Z,1022.54
2019-03-08T02:47:27.365Z,1022.55
2019-03-08T02:48:27.987Z,1022.51
2019-03-08T02:49:28.800Z,1022.49
2019-03-08T02:50:29.384Z,1022.55
2019-03-08T02:51:29.986Z,1022.55
2019-03-08T02:52:30.559Z,1022.50
2019-03-08T02:53:31.132Z,1022.61
2019-03-08T02:54:31.703Z,1022.55
2019-03-08T02:55:32.273Z,1022.55
2019-03-08T02:56:32.894Z,1022.56
2019-03-08T02:57:33.467Z,1022.56
2019-03-08T02:58:34.089Z,1022.54
2019-03-08T02:59:34.712Z,1022.51
2019-03-08T03:00:35.287Z,1022.46
2019-03-08T03:01:35.856Z,1022.48
2019-03-08T03:02:36.425Z,1022.54
2019-03-08T03:03:36.997Z,1022.50
2019-03-08T03:04:37.570Z,1022.51
2019-03-08T03:05:38.145Z,1022.51
2019-03-08T03:06:38.799Z,1022.45
2019-03-08T03:07:39.376Z,1022.50
2019-03-08T03:08:39.944Z,1022.44
2019-03-08T03:09:40.517Z,1022.44
2019-03-08T03:10:41.141Z,1022.44
2019-03-08T03:11:41.717Z,1022.50
2019-03-08T03:12:42.291Z,1022.42
2019-03-08T03:13:42.907Z,1022.36
2019-03-08T03:14:43.481Z,1022.35
2019-03-08T03:15:44.317Z,1022.39
2019-03-08T03:16:44.924Z,1022.34
2019-03-08T03:17:45.499Z,1022.37
2019-03-08T03:18:46.070Z,1022.34
2019-03-08T03:19:46.695Z,1022.31
2019-03-08T03:20:47.269Z,1022.36
2019-03-08T03:21:47.889Z,1022.36
2019-03-08T03:22:48.463Z,1022.36
2019-03-08T03:23:49.036Z,1022.34
2019-03-08T03:24:49.609Z,1022.40
2019-03-08T03:25:50.182Z,1022.40
2019-03-08T03:26:50.758Z,1022.33
2019-03-08T03:27:51.330Z,1022.38
2019-03-08T03:28:51.901Z,1022.33
2019-03-08T03:29:52.475Z,1022.39
2019-03-08T03:30:53.046Z,1022.43
2019-03-08T03:31:53.668Z,1022.48
2019-03-08T03:32:54.348Z,1022.46
2019-03-08T03:33:54.919Z,1022.50
2019-03-08T03:34:55.494Z,1022.52
2019-03-08T03:35:56.107Z,1022.48
2019-03-08T03:36:56.682Z,1022.44
2019-03-08T03:37:57.324Z,1022.54
2019-03-08T03:38:57.929Z,1022.52
2019-03-08T03:39:58.500Z,1022.43
2019-03-08T03:40:59.071Z,1022.51
2019-03-08T03:41:59.697Z,1022.45
2019-03-08T03:43:00.321Z,1022.45
2019-03-08T03:44:00.891Z,1022.41
2019-03-08T03:45:01.463Z,1022.50
2019-03-08T03:46:02.036Z,1022.47
2019-03-08T03:47:02.658Z,1022.47
2019-03-08T03:48:03.232Z,1022.49
2019-03-08T03:49:03.806Z,1022.49
2019-03-08T03:50:04.599Z,1022.49
2019-03-08T03:51:05.177Z,1022.53
2019-03-08T03:52:05.743Z,1022.58
2019-03-08T03:53:06.317Z,1022.55
2019-03-08T03:54:06.889Z,1022.58
2019-03-08T03:55:07.463Z,1022.63
2019-03-08T03:56:08.034Z,1022.55
2019-03-08T03:57:08.659Z,1022.62
2019-03-08T03:58:09.231Z,1022.53
2019-03-08T03:59:10.796Z,1022.50
2019-03-08T04:00:11.844Z,1022.42
2019-03-08T04:01:12.448Z,1022.42
2019-03-08T04:02:13.020Z,1022.39
2019-03-08T04:03:13.591Z,1022.34
2019-03-08T04:04:14.165Z,1022.38
2019-03-08T04:05:14.782Z,1022.48
2019-03-08T04:06:15.350Z,1022.58
2019-03-08T04:07:15.923Z,1022.53
2019-03-08T04:08:16.827Z,1022.58
2019-03-08T04:09:17.452Z,1022.53
2019-03-08T04:10:18.024Z,1022.40
2019-03-08T04:11:18.596Z,1022.39
2019-03-08T04:12:19.171Z,1022.39
2019-03-08T04:13:19.742Z,1022.33
2019-03-08T04:14:20.366Z,1022.36
2019-03-08T04:15:20.939Z,1022.36
2019-03-08T04:16:21.595Z,1022.44
2019-03-08T04:17:22.166Z,1022.47
2019-03-08T04:18:22.788Z,1022.48
2019-03-08T04:19:23.363Z,1022.46
2019-03-08T04:20:23.935Z,1022.48
2019-03-08T04:21:24.508Z,1022.50
2019-03-08T04:22:25.079Z,1022.53
2019-03-08T04:23:25.704Z,1022.61
2019-03-08T04:24:26.279Z,1022.67
2019-03-08T04:25:26.889Z,1022.71
2019-03-08T04:26:27.459Z,1022.63
2019-03-08T04:27:28.032Z,1022.70
2019-03-08T04:28:28.609Z,1022.72
2019-03-08T04:29:29.177Z,1022.73
2019-03-08T04:30:29.748Z,1022.70
2019-03-08T04:31:30.319Z,1022.75
2019-03-08T04:32:30.945Z,1022.73
2019-03-08T04:33:31.616Z,1022.81
2019-03-08T04:34:32.222Z,1022.79
2019-03-08T04:35:32.791Z,1022.86
2019-03-08T04:36:33.366Z,1022.88
2019-03-08T04:37:33.937Z,1022.88
2019-03-08T04:38:34.510Z,1022.93
2019-03-08T04:39:35.082Z,1022.94
2019-03-08T04:40:35.657Z,1022.91
2019-03-08T04:41:36.225Z,1022.83
2019-03-08T04:42:36.996Z,1022.84
2019-03-08T04:43:37.569Z,1022.89
2019-03-08T04:44:38.139Z,1022.84
2019-03-08T04:45:38.712Z,1022.90
2019-03-08T04:46:39.282Z,1022.88
2019-03-08T04:47:39.858Z,1022.97
2019-03-08T04:48:40.479Z,1022.93
2019-03-08T04:49:41.052Z,1022.90
2019-03-08T04:50:41.623Z,1022.97
2019-03-08T04:51:42.194Z,1023.05
2019-03-08T04:52:42.765Z,1023.01
2019-03-08T04:53:43.337Z,1023.01
2019-03-08T04:54:43.909Z,1023.05
2019-03-08T04:55:44.481Z,1023.09
2019-03-08T04:56:45.053Z,1023.14
2019-03-08T04:57:45.628Z,1023.16
2019-03-08T04:58:46.197Z,1023.10
2019-03-08T04:59:47.174Z,1023.18
2019-03-08T05:00:48.580Z,1023.16
2019-03-08T05:01:49.152Z,1023.12
2019-03-08T05:02:49.723Z,1023.20
2019-03-08T05:03:50.363Z,1023.18
2019-03-08T05:04:50.917Z,1023.13
2019-03-08T05:05:51.542Z,1023.18
2019-03-08T05:06:52.163Z,1023.23
2019-03-08T05:07:52.740Z,1023.28
2019-03-08T05:08:53.595Z,1023.30
2019-03-08T05:09:54.217Z,1023.34
2019-03-08T05:10:54.788Z,1023.42
2019-03-08T05:11:55.361Z,1023.38
2019-03-08T05:12:55.933Z,1023.41
2019-03-08T05:13:56.553Z,1023.43
2019-03-08T05:14:57.125Z,1023.41
2019-03-08T05:15:57.696Z,1023.43
2019-03-08T05:16:58.306Z,1023.44
2019-03-08T05:17:58.877Z,1023.48
2019-03-08T05:18:59.449Z,1023.43
2019-03-08T05:20:00.023Z,1023.46
2019-03-08T05:21:00.646Z,1023.51
2019-03-08T05:22:01.221Z,1023.48
2019-03-08T05:23:01.844Z,1023.49
2019-03-08T05:24:02.467Z,1023.58
2019-03-08T05:25:03.082Z,1023.66
2019-03-08T05:26:03.848Z,1023.70
2019-03-08T05:27:04.419Z,1023.77
2019-03-08T05:28:05.073Z,1023.87
2019-03-08T05:29:05.675Z,1023.91
2019-03-08T05:30:06.249Z,1024.00
2019-03-08T05:31:06.824Z,1024.02
2019-03-08T05:32:07.395Z,1024.06
2019-03-08T05:33:07.971Z,1024.04
2019-03-08T05:34:08.540Z,1024.13
2019-03-08T05:35:09.116Z,1024.19
2019-03-08T05:36:09.734Z,1024.15
2019-03-08T05:37:10.305Z,1024.23
2019-03-08T05:38:10.877Z,1024.30
2019-03-08T05:39:11.448Z,1024.23
2019-03-08T05:40:12.020Z,1024.32
2019-03-08T05:41:12.590Z,1024.27
2019-03-08T05:42:13.163Z,1024.32
2019-03-08T05:43:13.946Z,1024.35
2019-03-08T05:44:14.521Z,1024.36
2019-03-08T05:45:15.089Z,1024.42
2019-03-08T05:46:15.661Z,1024.42
2019-03-08T05:47:16.233Z,1024.41
2019-03-08T05:48:16.805Z,1024.45
2019-03-08T05:49:17.379Z,1024.48
2019-03-08T05:50:17.950Z,1024.53
2019-03-08T05:51:18.572Z,1024.49
2019-03-08T05:52:19.147Z,1024.51
2019-03-08T05:53:19.766Z,1024.60
2019-03-08T05:54:20.338Z,1024.61
2019-03-08T05:55:20.912Z,1024.63
2019-03-08T05:56:21.486Z,1024.63
2019-03-08T05:57:22.058Z,1024.69
2019-03-08T05:58:22.632Z,1024.61
2019-03-08T05:59:23.209Z,1024.68
2019-03-08T06:00:31.538Z,1024.77
2019-03-08T06:01:24.530Z,1024.74
2019-03-08T06:02:25.104Z,1024.83
2019-03-08T06:03:25.678Z,1024.88
2019-03-08T06:04:26.300Z,1024.91
2019-03-08T06:05:26.873Z,1024.88
2019-03-08T06:06:27.444Z,1024.87
2019-03-08T06:07:28.018Z,1024.93
2019-03-08T06:08:28.828Z,1024.90
2019-03-08T06:09:29.398Z,1024.93
2019-03-08T06:10:30.022Z,1024.92
2019-03-08T06:11:30.593Z,1024.94
2019-03-08T06:12:31.164Z,1024.89
2019-03-08T06:13:31.738Z,1024.91
2019-03-08T06:14:32.311Z,1024.92
2019-03-08T06:15:32.900Z,1024.99
2019-03-08T06:16:33.552Z,1024.95
2019-03-08T06:17:34.119Z,1025.02
2019-03-08T06:18:34.842Z,1024.98
2019-03-08T06:19:35.410Z,1025.04
2019-03-08T06:20:35.984Z,1025.03
2019-03-08T06:21:36.559Z,1025.06
2019-03-08T06:22:37.171Z,1024.99
2019-03-08T06:23:37.741Z,1025.04
2019-03-08T06:24:38.366Z,1025.03
2019-03-08T06:25:39.196Z,1025.02
2019-03-08T06:26:39.769Z,1025.10
2019-03-08T06:27:40.345Z,1025.17
2019-03-08T06:28:40.918Z,1025.09
2019-03-08T06:29:41.493Z,1025.09
2019-03-08T06:30:42.114Z,1025.12
2019-03-08T06:31:42.744Z,1025.03
2019-03-08T06:32:43.417Z,1025.14
2019-03-08T06:33:44.160Z,1025.14
2019-03-08T06:34:44.780Z,1025.13
2019-03-08T06:35:45.401Z,1025.07
2019-03-08T06:36:45.975Z,1025.14
2019-03-08T06:37:46.548Z,1025.03
2019-03-08T06:38:47.121Z,1025.03
2019-03-08T06:39:47.692Z,1025.11
2019-03-08T06:40:48.262Z,1025.14
2019-03-08T06:41:48.833Z,1025.11
2019-03-08T06:42:49.517Z,1025.16
2019-03-08T06:43:50.092Z,1025.21
2019-03-08T06:44:50.706Z,1025.13
2019-03-08T06:45:51.278Z,1025.19
2019-03-08T06:46:51.849Z,1025.24
2019-03-08T06:47:52.472Z,1025.27
2019-03-08T06:48:53.048Z,1025.24
2019-03-08T06:49:53.660Z,1025.25
2019-03-08T06:50:54.421Z,1025.22
2019-03-08T06:51:55.032Z,1025.27
2019-03-08T06:52:55.658Z,1025.27
2019-03-08T06:53:56.318Z,1025.24
2019-03-08T06:54:56.887Z,1025.25
2019-03-08T06:55:57.459Z,1025.19
2019-03-08T06:56:58.030Z,1025.28
2019-03-08T06:57:58.605Z,1025.21
2019-03-08T06:58:59.183Z,1025.25
2019-03-08T06:59:59.844Z,1025.28
2019-03-08T07:01:00.415Z,1025.33
2019-03-08T07:02:00.987Z,1025.30
2019-03-08T07:03:01.560Z,1025.33
2019-03-08T07:04:02.173Z,1025.34
2019-03-08T07:05:02.744Z,1025.32
2019-03-08T07:06:03.326Z,1025.36
2019-03-08T07:07:03.934Z,1025.31
2019-03-08T07:08:04.689Z,1025.43
2019-03-08T07:09:05.263Z,1025.39
2019-03-08T07:10:05.834Z,1025.37
2019-03-08T07:11:06.406Z,1025.44
2019-03-08T07:12:06.979Z,1025.37
2019-03-08T07:13:07.607Z,1025.49
2019-03-08T07:14:08.323Z,1025.51
2019-03-08T07:15:08.895Z,1025.44
2019-03-08T07:16:13.274Z,1025.47
2019-03-08T07:17:11.150Z,1025.45
2019-03-08T07:18:12.819Z,1025.48
2019-03-08T07:19:13.296Z,1025.47
2019-03-08T07:20:13.864Z,1025.48
2019-03-08T07:21:14.437Z,1025.53
2019-03-08T07:22:15.008Z,1025.54
2019-03-08T07:23:15.584Z,1025.57
2019-03-08T07:24:16.155Z,1025.44
2019-03-08T07:25:16.913Z,1025.46
2019-03-08T07:26:17.486Z,1025.50
2019-03-08T07:27:18.108Z,1025.60
2019-03-08T07:28:18.681Z,1025.61
2019-03-08T07:29:19.249Z,1025.72
2019-03-08T07:30:19.821Z,1025.63
2019-03-08T07:31:20.395Z,1025.68
2019-03-08T07:32:21.014Z,1025.74
2019-03-08T07:33:21.585Z,1025.72
2019-03-08T07:34:22.357Z,1025.67
2019-03-08T07:35:22.977Z,1025.77
2019-03-08T07:36:24.826Z,1025.69
2019-03-08T07:37:25.165Z,1025.79
2019-03-08T07:38:25.736Z,1025.83
2019-03-08T07:39:26.359Z,1025.84
2019-03-08T07:40:26.929Z,1025.84
2019-03-08T07:41:28.899Z,1025.91
2019-03-08T07:42:29.116Z,1025.98
2019-03-08T07:43:29.738Z,1025.98
2019-03-08T07:44:30.309Z,1026.03
2019-03-08T07:45:30.883Z,1026.05
2019-03-08T07:46:31.456Z,1026.07
2019-03-08T07:47:32.081Z,1026.10
2019-03-08T07:48:32.652Z,1026.18
2019-03-08T07:49:33.224Z,1026.20
2019-03-08T07:50:33.796Z,1026.24
2019-03-08T07:51:34.537Z,1026.22
2019-03-08T07:52:35.110Z,1026.24
2019-03-08T07:53:35.683Z,1026.25
2019-03-08T07:54:36.255Z,1026.22
2019-03-08T07:55:36.828Z,1026.32
2019-03-08T07:56:37.399Z,1026.26
2019-03-08T07:57:37.971Z,1026.23
2019-03-08T07:58:38.543Z,1026.33
2019-03-08T07:59:39.173Z,1026.28
2019-03-08T08:00:39.889Z,1026.37
2019-03-08T08:01:40.460Z,1026.36
2019-03-08T08:02:41.032Z,1026.43
2019-03-08T08:03:41.655Z,1026.46
2019-03-08T08:04:42.225Z,1026.46
2019-03-08T08:05:42.799Z,1026.43
2019-03-08T08:06:43.369Z,1026.46
2019-03-08T08:07:43.942Z,1026.50
2019-03-08T08:08:51.414Z,1026.43
2019-03-08T08:09:46.129Z,1026.48
2019-03-08T08:10:46.700Z,1026.52
2019-03-08T08:11:47.272Z,1026.50
2019-03-08T08:12:47.895Z,1026.49
2019-03-08T08:13:48.465Z,1026.52
2019-03-08T08:14:49.036Z,1026.49
2019-03-08T08:15:49.608Z,1026.47
2019-03-08T08:16:50.179Z,1026.47
2019-03-08T08:17:50.843Z,1026.50
2019-03-08T08:18:51.413Z,1026.60
2019-03-08T08:19:51.983Z,1026.55
2019-03-08T08:20:52.556Z,1026.64
2019-03-08T08:21:53.177Z,1026.60
2019-03-08T08:22:53.747Z,1026.61
2019-03-08T08:23:54.322Z,1026.65
2019-03-08T08:24:54.895Z,1026.67
2019-03-08T08:25:55.468Z,1026.77
2019-03-08T08:26:56.147Z,1026.68
2019-03-08T08:27:56.720Z,1026.70
2019-03-08T08:28:57.295Z,1026.63
2019-03-08T08:29:57.867Z,1026.69
2019-03-08T08:30:58.439Z,1026.71
2019-03-08T08:31:59.062Z,1026.73
2019-03-08T08:32:59.633Z,1026.83
2019-03-08T08:34:00.255Z,1026.79
2019-03-08T08:35:00.825Z,1026.77
2019-03-08T08:36:01.573Z,1026.82
2019-03-08T08:37:02.140Z,1026.84
2019-03-08T08:38:02.719Z,1026.86
2019-03-08T08:39:03.335Z,1026.81
2019-03-08T08:40:03.907Z,1026.85
2019-03-08T08:41:04.491Z,1026.89
2019-03-08T08:42:05.091Z,1026.95
2019-03-08T08:43:05.665Z,1026.99
2019-03-08T08:44:06.319Z,1027.01
2019-03-08T08:45:06.890Z,1026.98
2019-03-08T08:46:07.467Z,1026.95
2019-03-08T08:47:08.075Z,1026.95
2019-03-08T08:48:08.691Z,1026.88
2019-03-08T08:49:09.264Z,1026.98
2019-03-08T08:50:09.834Z,1026.97
2019-03-08T08:51:10.405Z,1026.94
2019-03-08T08:52:10.978Z,1027.03
2019-03-08T08:53:11.720Z,1027.03
2019-03-08T08:54:12.295Z,1027.03
2019-03-08T08:55:12.875Z,1026.96
2019-03-08T08:56:13.490Z,1027.03
2019-03-08T08:57:14.064Z,1027.07
2019-03-08T08:58:14.687Z,1027.14
2019-03-08T08:59:15.259Z,1027.11
2019-03-08T09:00:15.831Z,1027.08
2019-03-08T09:01:16.405Z,1027.09
2019-03-08T09:02:16.987Z,1027.13
2019-03-08T09:03:17.549Z,1027.16
2019-03-08T09:04:18.169Z,1027.16
2019-03-08T09:05:18.741Z,1027.19
2019-03-08T09:06:19.314Z,1027.14
2019-03-08T09:07:19.886Z,1027.16
2019-03-08T09:08:20.501Z,1027.18
2019-03-08T09:09:21.030Z,1027.19
2019-03-08T09:10:21.882Z,1027.23
2019-03-08T09:11:22.453Z,1027.29
2019-03-08T09:12:23.076Z,1027.33
2019-03-08T09:13:23.699Z,1027.33
2019-03-08T09:14:24.269Z,1027.39
2019-03-08T09:15:24.839Z,1027.42
2019-03-08T09:16:25.461Z,1027.39
2019-03-08T09:17:26.032Z,1027.39
2019-03-08T09:18:26.604Z,1027.45
2019-03-08T09:19:27.454Z,1027.47
2019-03-08T09:20:28.028Z,1027.51
2019-03-08T09:21:28.650Z,1027.48
2019-03-08T09:22:29.265Z,1027.51
2019-03-08T09:23:29.837Z,1027.51
2019-03-08T09:24:30.414Z,1027.44
2019-03-08T09:25:31.030Z,1027.47
2019-03-08T09:26:33.033Z,1027.45
2019-03-08T09:27:32.262Z,1027.44
2019-03-08T09:28:32.838Z,1027.51
2019-03-08T09:29:41.079Z,1027.55
2019-03-08T09:30:34.083Z,1027.57
2019-03-08T09:31:34.699Z,1027.68
2019-03-08T09:32:35.324Z,1027.62
2019-03-08T09:33:35.899Z,1027.70
2019-03-08T09:34:36.563Z,1027.68
2019-03-08T09:35:37.187Z,1027.68
2019-03-08T09:36:38.004Z,1027.72
2019-03-08T09:37:38.599Z,1027.76
2019-03-08T09:38:39.303Z,1027.74
2019-03-08T09:39:39.876Z,1027.70
2019-03-08T09:40:40.447Z,1027.79
2019-03-08T09:41:41.020Z,1027.86
2019-03-08T09:42:41.594Z,1027.82
2019-03-08T09:43:42.166Z,1027.82
2019-03-08T09:44:42.788Z,1027.88
2019-03-08T09:45:43.360Z,1027.92
2019-03-08T09:46:43.932Z,1027.87
2019-03-08T09:47:44.503Z,1027.91
2019-03-08T09:48:48.518Z,1027.85
2019-03-08T09:49:46.691Z,1027.84
2019-03-08T09:50:47.262Z,1027.78
2019-03-08T09:51:47.836Z,1027.84
2019-03-08T09:52:48.455Z,1027.81
2019-03-08T09:53:49.221Z,1027.84
2019-03-08T09:54:49.843Z,1027.88
2019-03-08T09:55:50.414Z,1027.92
2019-03-08T09:56:50.989Z,1027.98
2019-03-08T09:57:52.218Z,1027.98
2019-03-08T09:58:52.788Z,1027.92
2019-03-08T09:59:53.364Z,1027.97
2019-03-08T10:00:53.937Z,1027.95
2019-03-08T10:01:54.506Z,1027.90
2019-03-08T10:02:55.263Z,1027.97
2019-03-08T10:03:55.839Z,1027.95
2019-03-08T10:04:57.375Z,1027.91
2019-03-08T10:05:58.004Z,1027.97
2019-03-08T10:06:58.578Z,1027.97
2019-03-08T10:07:59.203Z,1028.01
2019-03-08T10:08:59.777Z,1028.02
2019-03-08T10:10:00.361Z,1028.04
2019-03-08T10:11:00.921Z,1028.03
2019-03-08T10:12:01.749Z,1028.04
2019-03-08T10:13:02.321Z,1028.00
2019-03-08T10:14:02.893Z,1028.03
2019-03-08T10:15:03.465Z,1028.01
2019-03-08T10:16:04.036Z,1028.07
2019-03-08T10:17:04.609Z,1028.14
2019-03-08T10:18:05.183Z,1028.03
2019-03-08T10:19:05.753Z,1028.11
2019-03-08T10:20:06.410Z,1028.08
2019-03-08T10:21:06.986Z,1028.08
2019-03-08T10:22:07.571Z,1028.13
2019-03-08T10:23:08.180Z,1028.13
2019-03-08T10:24:08.804Z,1028.21
2019-03-08T10:25:09.375Z,1028.20
2019-03-08T10:26:09.947Z,1028.21
2019-03-08T10:27:10.681Z,1028.16
2019-03-08T10:28:11.299Z,1028.28
2019-03-08T10:29:12.160Z,1028.18
2019-03-08T10:30:12.734Z,1028.19
2019-03-08T10:31:13.307Z,1028.15
2019-03-08T10:32:13.880Z,1028.21
2019-03-08T10:33:14.454Z,1028.16
2019-03-08T10:34:15.029Z,1028.18
2019-03-08T10:35:23.529Z,1028.19
2019-03-08T10:36:17.168Z,1028.21
2019-03-08T10:37:17.742Z,1028.22
2019-03-08T10:38:22.730Z,1028.17
2019-03-08T10:39:20.118Z,1028.09
2019-03-08T10:40:20.689Z,1028.21
2019-03-08T10:41:21.265Z,1028.12
2019-03-08T10:42:21.839Z,1028.18
2019-03-08T10:43:22.413Z,1028.18
2019-03-08T10:44:22.987Z,1028.24
2019-03-08T10:45:23.602Z,1028.12
2019-03-08T10:46:24.376Z,1028.14
2019-03-08T10:47:24.946Z,1028.17
2019-03-08T10:48:25.520Z,1028.19
2019-03-08T10:49:26.094Z,1028.22
2019-03-08T10:50:26.667Z,1028.20
2019-03-08T10:51:27.296Z,1028.22
2019-03-08T10:52:27.867Z,1028.25
2019-03-08T10:53:28.441Z,1028.23
2019-03-08T10:54:29.009Z,1028.29
2019-03-08T10:55:29.879Z,1028.31
2019-03-08T10:56:30.451Z,1028.27
2019-03-08T10:57:31.024Z,1028.33
2019-03-08T10:58:31.598Z,1028.34
2019-03-08T10:59:32.171Z,1028.38
2019-03-08T11:00:32.794Z,1028.34
2019-03-08T11:01:33.369Z,1028.40
2019-03-08T11:02:33.943Z,1028.31
2019-03-08T11:03:34.515Z,1028.31
2019-03-08T11:04:35.090Z,1028.33
2019-03-08T11:05:35.664Z,1028.27
2019-03-08T11:06:36.239Z,1028.34
2019-03-08T11:07:36.863Z,1028.26
2019-03-08T11:08:37.437Z,1028.25
2019-03-08T11:09:38.014Z,1028.24
2019-03-08T11:10:38.587Z,1028.22
2019-03-08T11:11:39.161Z,1028.13
2019-03-08T11:12:39.850Z,1028.22
2019-03-08T11:13:43.413Z,1028.25
2019-03-08T11:14:41.088Z,1028.16
2019-03-08T11:15:41.669Z,1028.22
2019-03-08T11:16:43.443Z,1028.25
2019-03-08T11:17:50.550Z,1028.20
2019-03-08T11:18:45.370Z,1028.19
2019-03-08T11:19:45.944Z,1028.22
2019-03-08T11:20:46.566Z,1028.19
2019-03-08T11:21:47.335Z,1028.15
2019-03-08T11:22:47.911Z,1028.12
2019-03-08T11:23:48.484Z,1028.18
2019-03-08T11:24:49.112Z,1028.26
2019-03-08T11:25:49.684Z,1028.30
2019-03-08T11:26:50.259Z,1028.24
2019-03-08T11:27:50.836Z,1028.21
2019-03-08T11:28:51.410Z,1028.17
2019-03-08T11:29:51.985Z,1028.20
2019-03-08T11:30:54.170Z,1028.21
2019-03-08T11:31:53.232Z,1028.24
2019-03-08T11:32:53.811Z,1028.28
2019-03-08T11:33:54.426Z,1028.32
2019-03-08T11:34:55.039Z,1028.32
2019-03-08T11:35:55.616Z,1028.29
2019-03-08T11:36:56.226Z,1028.21
2019-03-08T11:37:56.799Z,1028.28
2019-03-08T11:38:57.422Z,1028.25
2019-03-08T11:39:57.998Z,1028.25
2019-03-08T11:40:58.567Z,1028.26
2019-03-08T11:41:59.138Z,1028.29
2019-03-08T11:42:59.761Z,1028.24
2019-03-08T11:44:00.386Z,1028.22
2019-03-08T11:45:00.962Z,1028.25
2019-03-08T11:46:01.586Z,1028.25
2019-03-08T11:47:02.161Z,1028.16
2019-03-08T11:48:02.830Z,1028.23
2019-03-08T11:49:03.404Z,1028.28
2019-03-08T11:50:04.028Z,1028.24
2019-03-08T11:51:04.604Z,1028.23
2019-03-08T11:52:05.182Z,1028.26
2019-03-08T11:53:05.754Z,1028.21
2019-03-08T11:54:06.328Z,1028.17
2019-03-08T11:55:06.901Z,1028.19
2019-03-08T11:56:07.476Z,1028.21
2019-03-08T11:57:08.185Z,1028.18
2019-03-08T11:58:08.818Z,1028.23
2019-03-08T11:59:09.429Z,1028.22
2019-03-08T12:00:10.055Z,1028.27
2019-03-08T12:01:10.630Z,1028.29
2019-03-08T12:02:11.209Z,1028.36
2019-03-08T12:03:11.824Z,1028.32
2019-03-08T12:04:12.449Z,1028.30
2019-03-08T12:05:13.021Z,1028.38
2019-03-08T12:06:13.845Z,1028.33
2019-03-08T12:07:14.467Z,1028.41
2019-03-08T12:08:15.042Z,1028.43
2019-03-08T12:09:15.629Z,1028.36
2019-03-08T12:10:16.190Z,1028.45
2019-03-08T12:11:16.765Z,1028.40
2019-03-08T12:12:17.339Z,1028.44
2019-03-08T12:13:17.918Z,1028.50